Time;durP1;ratioP1;P1;durP2;ratioP2;P2;SDS_P1;SDS_P2;PMS_P1;PMS_P2;Temp;Humidity;BMP_temperature;BMP_pressure;BME280_temperature;BME280_humidity;BME280_pressure;Samples;Min_cycle;Max_cycle;Signal;HPM_P1;HPM_P2
2023/07/15 00:01:59;;;;;;;6.83;3.60;;;17.30;99.90;;;;;;5094245;28;20211;-77
2023/07/15 00:04:29;;;;;;;5.47;3.70;;;17.20;99.90;;;;;;5111139;28;20259;-74
2023/07/15 00:06:58;;;;;;;5.83;3.40;;;17.30;99.90;;;;;;5119757;28;20586;-74
2023/07/15 00:09:29;;;;;;;4.70;3.67;;;17.30;99.90;;;;;;5115166;28;20255;-74
2023/07/15 00:11:58;;;;;;;6.17;3.77;;;17.20;99.90;;;;;;5103776;28;20206;-75
2023/07/15 00:14:28;;;;;;;5.40;3.63;;;17.20;99.90;;;;;;5094765;28;20227;-75
2023/07/15 00:16:56;;;;;;;4.63;3.30;;;17.30;99.90;;;;;;5094477;28;20207;-75
2023/07/15 00:19:25;;;;;;;6.47;3.40;;;17.30;99.90;;;;;;5094559;28;20205;-75
2023/07/15 00:21:55;;;;;;;4.43;3.43;;;17.20;99.90;;;;;;5093984;28;20703;-76
2023/07/15 00:24:23;;;;;;;4.57;3.47;;;17.30;99.90;;;;;;5094407;28;20268;-75
2023/07/15 00:26:52;;;;;;;6.33;3.70;;;17.20;99.90;;;;;;5093643;28;20689;-76
2023/07/15 00:29:21;;;;;;;6.07;3.50;;;17.20;99.90;;;;;;5093837;28;20256;-75
2023/07/15 00:31:49;;;;;;;4.80;3.53;;;17.20;99.90;;;;;;5093225;28;20648;-76
2023/07/15 00:34:17;;;;;;;4.73;3.37;;;17.20;99.90;;;;;;5093785;28;20210;-76
2023/07/15 00:36:45;;;;;;;5.87;3.77;;;17.20;99.90;;;;;;5093942;28;20262;-74
2023/07/15 00:39:15;;;;;;;5.93;3.57;;;17.20;99.90;;;;;;5093795;28;20206;-75
2023/07/15 00:41:43;;;;;;;7.27;3.60;;;17.10;99.90;;;;;;5093478;28;20660;-76
2023/07/15 00:44:15;;;;;;;5.57;3.60;;;17.10;99.90;;;;;;5093203;28;20286;-75
2023/07/15 00:47:14;;;;;;;5.53;3.53;;;17.00;99.90;;;;;;5094432;28;20297;-77
2023/07/15 00:49:44;;;;;;;4.83;3.50;;;17.00;99.90;;;;;;5093218;28;20211;-76
2023/07/15 00:52:16;;;;;;;5.13;3.77;;;16.90;99.90;;;;;;5093438;28;20207;-76
2023/07/15 00:54:48;;;;;;;5.17;3.67;;;16.90;99.90;;;;;;5093561;28;20265;-75
2023/07/15 00:57:17;;;;;;;5.27;3.20;;;16.90;99.90;;;;;;5093645;28;20286;-75
2023/07/15 00:59:47;;;;;;;6.13;3.60;;;16.80;99.90;;;;;;5093930;28;20215;-76
2023/07/15 01:02:17;;;;;;;6.93;3.77;;;16.80;99.90;;;;;;5103209;28;20214;-76
2023/07/15 01:04:46;;;;;;;7.23;3.67;;;16.80;99.90;;;;;;5113821;28;20206;-73
2023/07/15 01:07:15;;;;;;;6.13;3.80;;;16.80;99.90;;;;;;5098043;28;20694;-74
2023/07/15 01:09:44;;;;;;;4.50;3.40;;;16.70;99.90;;;;;;5093116;28;20584;-76
2023/07/15 01:12:12;;;;;;;5.13;3.80;;;16.70;99.90;;;;;;5093165;28;20294;-76
2023/07/15 01:14:41;;;;;;;5.43;3.80;;;16.70;99.90;;;;;;5093093;28;20313;-76
2023/07/15 01:17:09;;;;;;;4.93;3.57;;;16.70;99.90;;;;;;5092961;28;20214;-75
2023/07/15 01:19:38;;;;;;;5.93;4.07;;;16.70;99.90;;;;;;5093072;28;20207;-74
2023/07/15 01:22:07;;;;;;;7.57;3.70;;;16.70;99.90;;;;;;5092984;28;20340;-75
2023/07/15 01:24:37;;;;;;;4.53;3.80;;;16.60;99.90;;;;;;5092262;28;20211;-77
2023/07/15 01:27:08;;;;;;;4.30;3.63;;;16.60;99.90;;;;;;5092775;28;20207;-75
2023/07/15 01:29:36;;;;;;;5.03;3.67;;;16.60;99.90;;;;;;5092618;28;20664;-73
2023/07/15 01:32:05;;;;;;;5.33;3.60;;;16.50;99.90;;;;;;5092518;28;20260;-78
2023/07/15 01:34:33;;;;;;;4.77;3.90;;;16.50;99.90;;;;;;5092457;28;20726;-76
2023/07/15 01:37:01;;;;;;;4.93;3.63;;;16.50;99.90;;;;;;5092303;28;20234;-75
2023/07/15 01:39:29;;;;;;;4.97;3.83;;;16.40;99.90;;;;;;5092479;28;20809;-75
2023/07/15 01:41:59;;;;;;;5.23;3.77;;;16.40;99.90;;;;;;5092565;28;20256;-76
2023/07/15 01:44:27;;;;;;;10.03;4.13;;;16.40;99.90;;;;;;5092645;28;20203;-75
2023/07/15 01:46:55;;;;;;;5.70;3.97;;;16.30;99.90;;;;;;5092732;28;20202;-76
2023/07/15 01:49:23;;;;;;;6.07;4.10;;;16.40;99.90;;;;;;5093014;28;20217;-75
2023/07/15 01:51:51;;;;;;;4.63;3.90;;;16.30;99.90;;;;;;5113368;28;20213;-74
2023/07/15 01:54:19;;;;;;;5.60;3.70;;;16.30;99.90;;;;;;5113269;28;20216;-76
2023/07/15 01:56:48;;;;;;;5.83;3.97;;;16.30;99.90;;;;;;5113250;28;20226;-74
2023/07/15 01:59:17;;;;;;;6.90;3.40;;;16.30;99.90;;;;;;5096909;28;20203;-77
2023/07/15 02:01:45;;;;;;;5.77;3.77;;;16.30;99.90;;;;;;5110149;28;20210;-74
2023/07/15 02:04:13;;;;;;;5.37;3.90;;;16.20;99.90;;;;;;5113350;28;20542;-74
2023/07/15 02:06:41;;;;;;;7.47;4.07;;;16.20;99.90;;;;;;5112921;28;20197;-75
2023/07/15 02:09:10;;;;;;;5.63;3.87;;;16.30;99.90;;;;;;5094344;28;20267;-74
2023/07/15 02:11:38;;;;;;;5.70;4.00;;;16.20;99.90;;;;;;5092383;28;20297;-75
2023/07/15 02:14:08;;;;;;;6.33;4.23;;;16.20;99.90;;;;;;5093226;28;20237;-76
2023/07/15 02:16:38;;;;;;;6.73;4.40;;;16.20;99.90;;;;;;5108994;28;20584;-75
2023/07/15 02:19:07;;;;;;;6.57;3.97;;;16.20;99.90;;;;;;5112536;28;20202;-78
2023/07/15 02:21:35;;;;;;;5.10;4.23;;;16.20;99.90;;;;;;5112777;28;20213;-77
2023/07/15 02:24:03;;;;;;;6.40;4.07;;;16.20;99.90;;;;;;5112172;28;20210;-76
2023/07/15 02:26:32;;;;;;;5.50;4.10;;;16.20;99.90;;;;;;5111540;28;20224;-77
2023/07/15 02:29:00;;;;;;;5.10;4.07;;;16.20;99.90;;;;;;5112660;28;20672;-77
2023/07/15 02:31:29;;;;;;;5.10;3.97;;;16.30;99.90;;;;;;5112336;28;20652;-77
2023/07/15 02:33:59;;;;;;;4.13;3.73;;;16.30;99.90;;;;;;5112068;28;20218;-75
2023/07/15 02:36:27;;;;;;;5.47;4.00;;;16.30;99.90;;;;;;5113742;28;20225;-76
2023/07/15 02:38:55;;;;;;;7.17;3.87;;;16.30;99.90;;;;;;5116522;28;20205;-75
2023/07/15 02:41:23;;;;;;;4.73;3.77;;;16.30;99.90;;;;;;5116197;28;20202;-75
2023/07/15 02:43:51;;;;;;;6.63;4.10;;;16.30;99.90;;;;;;5099860;28;20240;-77
2023/07/15 02:46:19;;;;;;;5.93;4.10;;;16.20;99.90;;;;;;5096091;28;20285;-77
2023/07/15 02:48:47;;;;;;;5.10;3.90;;;16.20;99.90;;;;;;5095458;28;20246;-75
2023/07/15 02:51:17;;;;;;;5.30;4.30;;;16.20;99.90;;;;;;5096344;28;20228;-78
2023/07/15 02:53:45;;;;;;;5.67;3.87;;;16.20;99.90;;;;;;5115829;28;20621;-74
2023/07/15 02:56:13;;;;;;;5.50;4.20;;;16.10;99.90;;;;;;5116310;28;20233;-76
2023/07/15 02:58:42;;;;;;;5.83;4.00;;;16.10;99.90;;;;;;5115754;28;20202;-75
2023/07/15 03:01:11;;;;;;;4.53;3.70;;;16.10;99.90;;;;;;5115726;28;20238;-77
2023/07/15 03:03:39;;;;;;;6.77;4.13;;;16.10;99.90;;;;;;5115400;28;20286;-74
2023/07/15 03:06:09;;;;;;;5.37;3.70;;;16.10;99.90;;;;;;5116497;28;20202;-76
2023/07/15 03:08:38;;;;;;;6.67;3.87;;;16.10;99.90;;;;;;5108587;28;20675;-75
2023/07/15 03:11:07;;;;;;;7.60;4.17;;;16.10;99.90;;;;;;5115061;28;20217;-75
2023/07/15 03:13:35;;;;;;;5.20;4.00;;;16.10;99.90;;;;;;5114505;28;20666;-75
2023/07/15 03:16:04;;;;;;;5.87;4.00;;;16.10;99.90;;;;;;5114945;28;20291;-77
2023/07/15 03:18:32;;;;;;;5.80;4.03;;;16.00;99.90;;;;;;5114948;28;20198;-76
2023/07/15 03:21:00;;;;;;;4.53;3.90;;;16.00;99.90;;;;;;5108463;28;20627;-76
2023/07/15 03:23:28;;;;;;;6.63;4.20;;;16.00;99.90;;;;;;5112381;28;20601;-79
2023/07/15 03:25:58;;;;;;;4.77;3.77;;;16.00;99.90;;;;;;5113803;28;20210;-76
2023/07/15 03:28:26;;;;;;;5.60;3.97;;;16.00;99.90;;;;;;5115666;28;20206;-76
2023/07/15 03:30:54;;;;;;;5.87;3.97;;;16.00;99.90;;;;;;5115581;27;20209;-74
2023/07/15 03:33:22;;;;;;;5.03;3.80;;;16.10;99.90;;;;;;5108251;28;20252;-76
2023/07/15 03:35:50;;;;;;;5.50;4.40;;;16.10;99.90;;;;;;5094490;28;20344;-75
2023/07/15 03:38:18;;;;;;;4.47;3.93;;;16.10;99.90;;;;;;5109500;28;20226;-75
2023/07/15 03:40:50;;;;;;;7.20;3.70;;;16.10;99.90;;;;;;5114586;28;20285;-76
2023/07/15 03:43:19;;;;;;;6.90;3.90;;;16.10;99.90;;;;;;5097562;28;20710;-76
2023/07/15 03:45:47;;;;;;;5.90;3.97;;;16.10;99.90;;;;;;5094091;28;20585;-75
2023/07/15 03:48:16;;;;;;;6.43;4.10;;;16.10;99.90;;;;;;5093567;28;20210;-76
2023/07/15 03:50:45;;;;;;;7.07;4.13;;;16.10;99.90;;;;;;5093842;28;20210;-75
2023/07/15 03:53:13;;;;;;;6.13;4.43;;;16.10;99.90;;;;;;5094595;28;20289;-76
2023/07/15 03:55:42;;;;;;;6.67;3.93;;;16.10;99.90;;;;;;5094451;28;20207;-76
2023/07/15 03:58:10;;;;;;;5.70;4.00;;;16.10;99.90;;;;;;5103374;28;20228;-76
2023/07/15 04:00:39;;;;;;;6.40;4.30;;;16.10;99.90;;;;;;5116157;28;20202;-74
2023/07/15 04:03:10;;;;;;;7.27;4.00;;;16.20;99.90;;;;;;5113878;28;20676;-74
2023/07/15 04:05:38;;;;;;;5.40;3.93;;;16.20;99.90;;;;;;5106843;28;20260;-74
2023/07/15 04:08:06;;;;;;;4.50;3.70;;;16.20;99.90;;;;;;5114521;28;20244;-75
2023/07/15 04:10:35;;;;;;;6.37;3.97;;;16.10;99.90;;;;;;5114489;28;20572;-76
2023/07/15 04:13:03;;;;;;;5.30;3.70;;;16.20;99.90;;;;;;5113998;28;20241;-76
2023/07/15 04:15:31;;;;;;;5.40;3.70;;;16.20;99.90;;;;;;5103925;28;20587;-77
2023/07/15 04:18:01;;;;;;;6.83;4.23;;;16.20;99.90;;;;;;5093925;28;20283;-77
2023/07/15 04:20:31;;;;;;;5.00;3.67;;;16.20;99.90;;;;;;5093695;28;20211;-78
2023/07/15 04:22:59;;;;;;;7.03;4.00;;;16.20;99.90;;;;;;5093432;28;20211;-74
2023/07/15 04:25:27;;;;;;;4.53;4.13;;;16.30;99.90;;;;;;5107415;28;20564;-74
2023/07/15 04:27:56;;;;;;;8.00;3.73;;;16.40;99.90;;;;;;5114707;28;20289;-74
2023/07/15 04:30:24;;;;;;;5.90;3.80;;;16.40;99.90;;;;;;5114072;28;20255;-74
2023/07/15 04:32:52;;;;;;;4.70;3.73;;;16.50;99.90;;;;;;5096666;28;20264;-73
2023/07/15 04:35:22;;;;;;;7.13;4.07;;;16.60;99.90;;;;;;5093699;28;20679;-75
2023/07/15 04:37:50;;;;;;;6.93;3.80;;;16.70;99.90;;;;;;5093292;28;20762;-76
2023/07/15 04:40:19;;;;;;;7.10;4.00;;;16.80;99.90;;;;;;5093677;28;20264;-75
2023/07/15 04:42:47;;;;;;;4.97;4.00;;;16.90;99.90;;;;;;5093658;28;20234;-74
2023/07/15 04:45:15;;;;;;;6.50;3.57;;;16.90;99.90;;;;;;5094118;28;20215;-76
2023/07/15 04:47:43;;;;;;;5.43;3.90;;;17.00;99.90;;;;;;5093804;28;20234;-76
2023/07/15 04:50:11;;;;;;;4.93;3.40;;;17.10;99.90;;;;;;5093629;28;20264;-76
2023/07/15 04:52:41;;;;;;;6.20;3.67;;;17.20;99.90;;;;;;5092858;28;20523;-75
2023/07/15 04:55:10;;;;;;;6.40;3.50;;;17.30;99.90;;;;;;5093622;28;20268;-77
2023/07/15 04:57:38;;;;;;;5.40;3.47;;;17.40;99.90;;;;;;5111294;28;20278;-75
2023/07/15 05:00:10;;;;;;;7.17;3.43;;;17.50;99.90;;;;;;5108869;28;20226;-76
2023/07/15 05:02:39;;;;;;;7.17;3.37;;;17.70;99.90;;;;;;5092813;28;20203;-78
2023/07/15 05:05:08;;;;;;;4.03;3.13;;;17.80;99.90;;;;;;5093130;28;20744;-77
2023/07/15 05:07:36;;;;;;;5.57;3.30;;;18.00;99.90;;;;;;5093304;28;20399;-79
2023/07/15 05:10:25;;;;;;;6.53;3.30;;;18.20;99.90;;;;;;5102795;28;20625;-79
2023/07/15 05:12:53;;;;;;;5.83;3.37;;;18.50;99.90;;;;;;5113396;28;20350;-73
2023/07/15 05:15:22;;;;;;;4.17;3.20;;;18.70;99.90;;;;;;5113390;27;20206;-75
2023/07/15 05:17:50;;;;;;;5.80;3.10;;;18.90;99.90;;;;;;5113377;28;20226;-76
2023/07/15 05:20:19;;;;;;;4.17;3.00;;;19.00;99.90;;;;;;5113256;28;20249;-74
2023/07/15 05:22:48;;;;;;;5.30;3.07;;;19.10;99.90;;;;;;5113308;28;20631;-79
2023/07/15 05:25:16;;;;;;;4.53;2.93;;;19.30;99.90;;;;;;5113562;28;20263;-75
2023/07/15 05:27:46;;;;;;;5.03;3.00;;;19.30;99.90;;;;;;5113334;28;20221;-74
2023/07/15 05:30:14;;;;;;;2.77;2.57;;;19.50;99.90;;;;;;5113429;28;20209;-75
2023/07/15 05:32:42;;;;;;;4.63;3.10;;;19.60;99.90;;;;;;5113016;28;20297;-74
2023/07/15 05:35:10;;;;;;;6.33;3.30;;;19.80;99.90;;;;;;5113496;28;20210;-75
2023/07/15 05:37:40;;;;;;;3.83;2.73;;;19.90;99.90;;;;;;5097651;28;20230;-74
2023/07/15 05:40:10;;;;;;;4.77;2.97;;;20.00;99.90;;;;;;5093272;28;20577;-74
2023/07/15 05:42:39;;;;;;;5.23;2.87;;;20.10;99.90;;;;;;5106053;28;20286;-74
2023/07/15 05:45:10;;;;;;;3.80;2.90;;;20.20;99.90;;;;;;5107967;28;20279;-73
2023/07/15 05:47:38;;;;;;;3.17;2.87;;;20.40;99.90;;;;;;5093320;28;20198;-73
2023/07/15 05:50:08;;;;;;;3.07;2.77;;;20.50;99.90;;;;;;5092670;28;20284;-76
2023/07/15 05:52:36;;;;;;;5.37;2.90;;;20.60;99.90;;;;;;5092331;28;20207;-74
2023/07/15 05:55:06;;;;;;;2.70;2.50;;;20.80;99.90;;;;;;5101241;28;20209;-75
2023/07/15 05:57:35;;;;;;;5.23;2.83;;;21.10;99.90;;;;;;5114026;28;20222;-76
2023/07/15 06:00:07;;;;;;;3.73;2.50;;;21.50;99.90;;;;;;5114565;28;20210;-75
2023/07/15 06:02:40;;;;;;;3.03;2.43;;;22.30;99.90;;;;;;5098563;28;20242;-75
2023/07/15 06:05:09;;;;;;;3.17;2.43;;;23.70;99.90;;;;;;5094986;28;20187;-76
2023/07/15 06:07:38;;;;;;;4.90;2.33;;;24.80;99.90;;;;;;5095252;28;20388;-76
2023/07/15 06:10:06;;;;;;;2.63;2.20;;;26.10;99.90;;;;;;5094845;28;20206;-77
2023/07/15 06:12:36;;;;;;;5.10;2.40;;;27.20;99.90;;;;;;5098431;28;20206;-77
2023/07/15 06:15:05;;;;;;;5.32;2.40;;;28.30;97.90;;;;;;5104377;28;20214;-77
2023/07/15 06:17:34;;;;;;;5.45;2.28;;;29.30;94.00;;;;;;5120521;28;20202;-76
2023/07/15 06:20:03;;;;;;;3.53;2.20;;;29.50;91.30;;;;;;5120445;28;20265;-77
2023/07/15 06:22:32;;;;;;;3.03;2.20;;;29.60;90.60;;;;;;5120119;28;20239;-79
2023/07/15 06:25:00;;;;;;;4.30;2.40;;;30.70;88.50;;;;;;5108921;28;20214;-77
2023/07/15 06:27:28;;;;;;;6.63;2.15;;;31.20;82.30;;;;;;5099533;28;20207;-78
2023/07/15 06:29:56;;;;;;;4.82;2.20;;;31.10;78.00;;;;;;5100506;28;20206;-77
2023/07/15 06:32:24;;;;;;;3.45;2.00;;;31.30;79.90;;;;;;5101733;28;20199;-78
2023/07/15 06:34:53;;;;;;;3.38;2.17;;;31.90;73.60;;;;;;5101800;28;20297;-79
2023/07/15 06:37:22;;;;;;;6.47;2.20;;;32.20;74.40;;;;;;5114836;28;20237;-78
2023/07/15 06:39:51;;;;;;;5.47;2.15;;;31.80;72.20;;;;;;5116511;28;20249;-79
2023/07/15 06:42:19;;;;;;;5.03;2.20;;;32.40;69.10;;;;;;5116326;28;20294;-79
2023/07/15 06:44:47;;;;;;;2.40;2.00;;;32.60;66.30;;;;;;5115449;28;20233;-80
2023/07/15 06:47:15;;;;;;;2.58;2.03;;;33.30;67.00;;;;;;5110927;28;20240;-79
2023/07/15 06:49:43;;;;;;;3.92;2.42;;;33.60;66.70;;;;;;5106547;28;20600;-79
2023/07/15 06:52:12;;;;;;;2.50;2.00;;;34.10;65.10;;;;;;5103811;28;20668;-76
2023/07/15 06:54:41;;;;;;;2.30;2.10;;;34.60;58.80;;;;;;5106340;28;20656;-77
2023/07/15 06:57:09;;;;;;;3.03;2.17;;;34.90;58.70;;;;;;5097066;28;20697;-80
2023/07/15 06:59:37;;;;;;;2.50;2.00;;;35.90;55.80;;;;;;5095508;28;20341;-80
2023/07/15 07:02:07;;;;;;;3.10;2.10;;;35.70;53.80;;;;;;5095592;28;20207;-82
2023/07/15 07:04:35;;;;;;;2.25;2.05;;;36.40;51.70;;;;;;5096366;28;20242;-79
2023/07/15 07:07:04;;;;;;;3.80;2.03;;;36.00;49.70;;;;;;5096447;28;20214;-80
2023/07/15 07:09:32;;;;;;;2.28;2.08;;;35.40;51.20;;;;;;5095402;28;20748;-80
2023/07/15 07:12:01;;;;;;;4.13;2.03;;;36.20;50.50;;;;;;5094633;28;20222;-79
2023/07/15 07:14:29;;;;;;;4.78;2.28;;;36.40;47.90;;;;;;5110307;28;20237;-80
2023/07/15 07:17:01;;;;;;;2.47;1.88;;;36.70;48.20;;;;;;5113051;28;20297;-83
2023/07/15 07:19:29;;;;;;;3.50;2.00;;;37.30;48.40;;;;;;5105955;28;20718;-82
2023/07/15 07:21:57;;;;;;;2.60;2.05;;;37.00;45.30;;;;;;5113448;28;20237;-79
2023/07/15 07:24:25;;;;;;;3.40;2.08;;;36.80;44.60;;;;;;5102197;28;20207;-83
2023/07/15 07:26:54;;;;;;;2.78;2.38;;;37.30;45.10;;;;;;5094570;28;20309;-81
2023/07/15 07:29:23;;;;;;;5.85;2.58;;;38.20;43.00;;;;;;5094474;28;20294;-84
2023/07/15 07:31:53;;;;;;;3.50;2.50;;;39.00;40.30;;;;;;5094275;28;20207;-82
2023/07/15 07:34:21;;;;;;;4.45;2.40;;;39.20;38.20;;;;;;5097349;28;20206;-82
2023/07/15 07:36:49;;;;;;;2.55;2.30;;;39.40;38.20;;;;;;5100331;28;20210;-83
2023/07/15 07:39:17;;;;;;;2.42;2.20;;;40.00;35.70;;;;;;5094280;28;20226;-81
2023/07/15 07:41:45;;;;;;;2.05;1.90;;;40.00;36.60;;;;;;5093855;28;20210;-80
2023/07/15 07:44:13;;;;;;;2.40;2.00;;;40.50;33.40;;;;;;5093730;28;20250;-81
2023/07/15 07:46:43;;;;;;;2.60;2.25;;;40.40;28.10;;;;;;5093990;28;20209;-80
2023/07/15 07:49:11;;;;;;;3.85;2.10;;;40.40;29.10;;;;;;5093667;28;20213;-80
2023/07/15 07:51:40;;;;;;;2.30;2.10;;;40.80;26.80;;;;;;5097473;28;20281;-81
2023/07/15 07:54:08;;;;;;;2.00;1.90;;;40.40;27.30;;;;;;5114190;28;20213;-81
2023/07/15 07:56:36;;;;;;;4.13;2.10;;;40.60;27.40;;;;;;5113572;28;20245;-82
2023/07/15 07:59:04;;;;;;;1.98;1.80;;;40.60;27.50;;;;;;5113446;28;20392;-81
2023/07/15 08:01:34;;;;;;;2.92;2.22;;;40.40;25.70;;;;;;5093384;28;20289;-81
2023/07/15 08:04:03;;;;;;;3.72;1.90;;;40.80;24.40;;;;;;5101295;28;20242;-80
2023/07/15 08:06:31;;;;;;;2.50;2.00;;;41.30;24.30;;;;;;5113372;28;20200;-84
2023/07/15 08:08:59;;;;;;;3.63;2.08;;;41.30;22.20;;;;;;5112962;28;20732;-81
2023/07/15 08:11:28;;;;;;;2.08;1.98;;;41.10;24.90;;;;;;5093270;28;20688;-80
2023/07/15 08:13:56;;;;;;;3.95;2.00;;;41.50;21.40;;;;;;5108115;28;20210;-81
2023/07/15 08:16:32;;;;;;;1.90;1.80;;;40.90;19.60;;;;;;5113945;28;20299;-80
2023/07/15 08:19:01;;;;;;;2.10;1.90;;;40.90;21.70;;;;;;5103798;28;20691;-80
2023/07/15 08:21:30;;;;;;;2.28;1.90;;;40.20;20.20;;;;;;5103200;28;20209;-81
2023/07/15 08:23:59;;;;;;;2.28;2.00;;;40.10;23.40;;;;;;5113671;28;20206;-81
2023/07/15 08:26:27;;;;;;;4.28;2.00;;;40.60;23.30;;;;;;5113616;28;20296;-80
2023/07/15 08:28:57;;;;;;;6.15;2.05;;;40.40;20.10;;;;;;5100441;28;20220;-81
2023/07/15 08:31:26;;;;;;;2.00;1.75;;;40.60;21.20;;;;;;5093129;28;20300;-80
2023/07/15 08:33:55;;;;;;;2.22;2.03;;;40.90;21.90;;;;;;5092814;28;20259;-80
2023/07/15 08:36:23;;;;;;;2.00;1.90;;;41.20;18.40;;;;;;5095458;27;20292;-80
2023/07/15 08:38:54;;;;;;;2.08;1.90;;;40.30;18.60;;;;;;5098306;27;20226;-80
2023/07/15 08:41:24;;;;;;;5.03;1.75;;;40.20;19.20;;;;;;5092573;28;20656;-80
2023/07/15 08:43:52;;;;;;;2.33;2.00;;;40.80;20.00;;;;;;5092438;28;20221;-78
2023/07/15 08:46:26;;;;;;;2.35;1.95;;;41.00;20.40;;;;;;5092480;28;20569;-80
2023/07/15 08:48:55;;;;;;;2.15;1.98;;;41.70;20.20;;;;;;5093337;28;20202;-80
2023/07/15 08:51:26;;;;;;;2.55;2.08;;;41.00;18.80;;;;;;5108616;28;20306;-79
2023/07/15 08:53:59;;;;;;;2.08;1.98;;;41.00;22.10;;;;;;5105506;28;20217;-80
2023/07/15 08:56:29;;;;;;;3.53;2.00;;;41.60;19.20;;;;;;5113156;28;20221;-79
2023/07/15 08:58:58;;;;;;;5.78;2.13;;;41.80;17.90;;;;;;5113091;28;20198;-79
2023/07/15 09:01:27;;;;;;;4.57;1.80;;;41.10;20.40;;;;;;5103961;28;20207;-79
2023/07/15 09:03:55;;;;;;;3.13;1.95;;;41.40;19.80;;;;;;5092687;28;20214;-79
2023/07/15 09:06:24;;;;;;;2.00;1.90;;;41.50;19.20;;;;;;5094894;28;20217;-80
2023/07/15 09:08:53;;;;;;;5.05;1.90;;;42.20;16.40;;;;;;5109163;28;20235;-79
2023/07/15 09:11:22;;;;;;;4.03;2.08;;;42.10;17.00;;;;;;5112598;28;20591;-80
2023/07/15 09:13:51;;;;;;;3.00;1.88;;;41.00;16.90;;;;;;5111999;28;20239;-82
2023/07/15 09:16:19;;;;;;;2.47;2.00;;;40.60;17.40;;;;;;5111580;28;20202;-81
2023/07/15 09:18:49;;;;;;;2.88;2.28;;;40.90;19.70;;;;;;5106768;28;20247;-80
2023/07/15 09:21:18;;;;;;;2.22;2.00;;;40.90;18.40;;;;;;5111550;28;20221;-80
2023/07/15 09:23:46;;;;;;;4.15;1.80;;;40.70;20.90;;;;;;5106074;28;20240;-80
2023/07/15 09:26:15;;;;;;;3.38;1.90;;;40.90;17.80;;;;;;5112367;28;20205;-81
2023/07/15 09:28:48;;;;;;;4.82;2.10;;;41.70;21.00;;;;;;5108730;28;20201;-81
2023/07/15 09:31:23;;;;;;;2.70;2.10;;;41.40;17.90;;;;;;5112441;28;20213;-80
2023/07/15 09:33:52;;;;;;;2.80;1.98;;;41.60;20.20;;;;;;5112272;28;20593;-80
2023/07/15 09:36:30;;;;;;;2.03;1.83;;;41.60;18.80;;;;;;5104532;28;20213;-81
2023/07/15 09:39:03;;;;;;;3.78;1.90;;;41.40;16.90;;;;;;5092660;28;20209;-79
2023/07/15 09:41:32;;;;;;;2.05;1.85;;;41.90;17.50;;;;;;5093088;28;20247;-80
2023/07/15 09:44:01;;;;;;;3.72;1.92;;;41.70;15.40;;;;;;5103388;28;20316;-79
2023/07/15 09:46:31;;;;;;;5.07;1.95;;;41.70;17.50;;;;;;5107468;28;20201;-81
2023/07/15 09:48:59;;;;;;;3.38;1.95;;;40.80;16.20;;;;;;5107761;28;20536;-79
2023/07/15 09:51:28;;;;;;;4.90;2.10;;;41.00;16.70;;;;;;5091567;28;20206;-80
2023/07/15 09:53:58;;;;;;;1.90;1.80;;;41.70;17.00;;;;;;5091586;28;20570;-81
2023/07/15 09:56:35;;;;;;;3.05;1.92;;;41.30;16.70;;;;;;5092496;28;20218;-81
2023/07/15 09:59:13;;;;;;;3.33;2.00;;;41.70;17.80;;;;;;5104986;28;20197;-80
2023/07/15 10:01:45;;;;;;;2.03;1.80;;;40.80;15.70;;;;;;5112349;28;20221;-80
2023/07/15 10:04:22;;;;;;;2.97;1.77;;;41.00;17.90;;;;;;5112658;28;20813;-79
2023/07/15 10:06:51;;;;;;;2.22;2.00;;;41.20;20.10;;;;;;5112033;28;20300;-79
2023/07/15 10:09:20;;;;;;;3.25;1.80;;;41.40;18.40;;;;;;5095330;28;20202;-80
2023/07/15 10:11:51;;;;;;;2.00;1.90;;;41.30;16.70;;;;;;5091052;28;20662;-80
2023/07/15 10:14:22;;;;;;;2.42;1.92;;;41.50;16.30;;;;;;5093221;28;20874;-78
2023/07/15 10:17:09;;;;;;;1.80;1.70;;;40.70;16.10;;;;;;5102996;28;20251;-80
2023/07/15 10:19:42;;;;;;;3.28;1.80;;;40.30;17.30;;;;;;5104848;28;20750;-80
2023/07/15 10:22:11;;;;;;;3.47;1.80;;;39.90;18.70;;;;;;5111871;28;20202;-80
2023/07/15 10:24:42;;;;;;;2.00;1.90;;;40.60;19.10;;;;;;5101035;28;20211;-82
2023/07/15 10:27:11;;;;;;;1.73;1.63;;;40.90;18.20;;;;;;5091560;28;20215;-81
2023/07/15 10:29:42;;;;;;;2.42;1.70;;;40.60;16.20;;;;;;5092053;28;20214;-77
2023/07/15 10:32:15;;;;;;;1.92;1.83;;;40.50;16.00;;;;;;5091540;28;20199;-80
2023/07/15 10:34:49;;;;;;;2.22;1.80;;;40.60;17.00;;;;;;5103685;28;20664;-80
2023/07/15 10:37:19;;;;;;;2.80;2.03;;;41.50;15.50;;;;;;5114883;28;20241;-81
2023/07/15 10:39:47;;;;;;;2.65;2.08;;;41.10;14.30;;;;;;5108367;28;20238;-79
2023/07/15 10:42:17;;;;;;;2.97;1.73;;;41.40;14.50;;;;;;5090713;28;20243;-80
2023/07/15 10:44:53;;;;;;;1.70;1.60;;;41.30;15.60;;;;;;5091645;28;20286;-83
2023/07/15 10:47:22;;;;;;;3.03;1.75;;;41.30;17.30;;;;;;5094201;28;20263;-80
2023/07/15 10:49:51;;;;;;;2.00;1.90;;;41.40;16.10;;;;;;5111483;28;20266;-81
2023/07/15 10:52:23;;;;;;;3.88;1.90;;;41.10;17.10;;;;;;5109716;28;20205;-82
2023/07/15 10:54:55;;;;;;;1.85;1.75;;;41.10;18.20;;;;;;5098460;28;20202;-81
2023/07/15 10:57:27;;;;;;;4.65;2.05;;;42.10;16.50;;;;;;5105163;28;20236;-79
2023/07/15 11:00:09;;;;;;;2.55;1.83;;;42.10;14.60;;;;;;5115359;28;20200;-80
2023/07/15 11:02:38;;;;;;;3.88;2.00;;;41.40;15.40;;;;;;5110807;28;20210;-78
2023/07/15 11:05:08;;;;;;;2.72;1.60;;;42.10;14.80;;;;;;5095566;28;20217;-81
2023/07/15 11:07:38;;;;;;;2.20;1.95;;;41.00;15.50;;;;;;5095079;28;20215;-79
2023/07/15 11:10:07;;;;;;;2.65;1.80;;;40.80;16.60;;;;;;5110593;28;20285;-78
2023/07/15 11:12:35;;;;;;;3.65;1.83;;;39.70;16.00;;;;;;5110309;28;20248;-77
2023/07/15 11:15:03;;;;;;;3.33;1.52;;;39.50;17.60;;;;;;5115115;28;20234;-78
2023/07/15 11:17:32;;;;;;;3.42;1.77;;;39.40;19.00;;;;;;5115301;28;20211;-79
2023/07/15 11:20:05;;;;;;;3.20;1.80;;;39.50;19.10;;;;;;5114751;28;20210;-79
2023/07/15 11:22:34;;;;;;;3.28;1.67;;;38.90;17.80;;;;;;5104210;28;20669;-80
2023/07/15 11:25:02;;;;;;;4.78;1.90;;;38.80;20.50;;;;;;5113128;28;20212;-79
2023/07/15 11:27:31;;;;;;;2.35;1.65;;;38.60;18.40;;;;;;5094800;28;20268;-80
2023/07/15 11:29:59;;;;;;;2.92;1.77;;;38.80;18.80;;;;;;5108638;28;20331;-78
2023/07/15 11:32:28;;;;;;;2.17;1.77;;;38.40;18.20;;;;;;5112920;28;20213;-78
2023/07/15 11:34:58;;;;;;;2.42;1.85;;;38.60;21.60;;;;;;5114706;28;20616;-80
2023/07/15 11:37:29;;;;;;;1.88;1.77;;;38.50;19.30;;;;;;5113360;28;20222;-78
2023/07/15 11:40:00;;;;;;;1.77;1.67;;;38.60;20.90;;;;;;5115064;28;20313;-77
2023/07/15 11:42:36;;;;;;;3.00;1.85;;;37.70;20.30;;;;;;5097150;28;20245;-77
2023/07/15 11:45:05;;;;;;;2.00;1.73;;;38.00;21.30;;;;;;5094407;28;20209;-75
2023/07/15 11:47:34;;;;;;;3.05;1.85;;;38.00;21.00;;;;;;5110533;28;20569;-76
2023/07/15 11:50:05;;;;;;;5.50;2.10;;;37.70;21.40;;;;;;5100477;28;20700;-76
2023/07/15 11:52:42;;;;;;;3.22;1.73;;;37.10;21.60;;;;;;5093517;28;20756;-79
2023/07/15 11:55:10;;;;;;;3.03;1.98;;;37.50;24.10;;;;;;5094683;28;20215;-77
2023/07/15 11:57:45;;;;;;;2.67;1.70;;;36.80;22.00;;;;;;5097615;28;20210;-77
2023/07/15 12:00:29;;;;;;;2.53;1.65;;;36.90;23.70;;;;;;5094181;28;20210;-76
2023/07/15 12:03:13;;;;;;;2.10;1.75;;;36.90;22.40;;;;;;5093480;28;20238;-78
2023/07/15 12:05:43;;;;;;;2.35;1.70;;;36.90;22.70;;;;;;5095595;28;20267;-76
2023/07/15 12:08:12;;;;;;;2.13;1.80;;;36.90;23.80;;;;;;5102196;28;20673;-77
2023/07/15 12:10:50;;;;;;;4.05;1.77;;;36.60;21.50;;;;;;5093958;28;20202;-76
2023/07/15 12:13:18;;;;;;;4.15;1.50;;;36.90;21.10;;;;;;5094010;28;20230;-77
2023/07/15 12:15:46;;;;;;;4.07;1.88;;;36.50;20.00;;;;;;5112833;28;20726;-76
2023/07/15 12:18:14;;;;;;;2.05;1.85;;;36.70;23.90;;;;;;5110970;28;20214;-75
2023/07/15 12:20:44;;;;;;;1.60;1.50;;;36.50;22.10;;;;;;5113823;28;20209;-77
2023/07/15 12:23:12;;;;;;;1.65;1.55;;;36.60;21.50;;;;;;5113616;28;20210;-76
2023/07/15 12:25:40;;;;;;;3.05;1.85;;;36.90;22.60;;;;;;5113886;28;20276;-75
2023/07/15 12:28:08;;;;;;;2.97;1.60;;;36.70;21.20;;;;;;5099227;28;20283;-75
2023/07/15 12:30:36;;;;;;;3.15;1.77;;;36.50;21.70;;;;;;5093467;28;20203;-74
2023/07/15 12:33:04;;;;;;;1.98;1.67;;;36.50;22.30;;;;;;5093392;28;20210;-76
2023/07/15 12:35:33;;;;;;;1.75;1.58;;;36.70;23.80;;;;;;5093160;28;20210;-78
2023/07/15 12:38:02;;;;;;;1.63;1.52;;;36.50;22.70;;;;;;5093767;28;20294;-76
2023/07/15 12:40:31;;;;;;;1.73;1.55;;;36.30;19.40;;;;;;5093067;28;20215;-78
2023/07/15 12:42:59;;;;;;;2.55;1.70;;;36.50;21.20;;;;;;5092585;28;20258;-77
2023/07/15 12:45:27;;;;;;;2.20;1.80;;;36.90;20.10;;;;;;5109634;28;20206;-78
2023/07/15 12:47:55;;;;;;;3.58;1.90;;;37.00;23.50;;;;;;5113486;28;20213;-77
2023/07/15 12:50:26;;;;;;;3.28;1.73;;;37.10;24.30;;;;;;5113392;28;20210;-75
2023/07/15 12:52:54;;;;;;;2.75;1.80;;;37.00;24.20;;;;;;5112920;28;20213;-75
2023/07/15 12:55:23;;;;;;;1.92;1.70;;;36.90;23.50;;;;;;5093786;28;20226;-74
2023/07/15 12:57:52;;;;;;;2.42;1.65;;;36.60;21.20;;;;;;5093025;28;20207;-75
2023/07/15 13:00:21;;;;;;;1.75;1.60;;;36.70;23.70;;;;;;5092574;28;20252;-75